createdAt,value
2023-02-13T00:01:52.585Z,82.57
2023-02-13T00:05:52.692Z,82.42
2023-02-13T00:09:55.456Z,82.56
2023-02-13T00:13:55.622Z,82.06
2023-02-13T00:17:55.754Z,82.27
2023-02-13T00:21:55.856Z,82.58
2023-02-13T00:25:58.694Z,82.71
2023-02-13T00:29:58.884Z,82.40
2023-02-13T00:34:01.887Z,81.97
2023-02-13T00:38:02.003Z,81.52
2023-02-13T00:42:04.733Z,81.68
2023-02-13T00:46:05.124Z,81.36
2023-02-13T00:50:05.469Z,80.97
2023-02-13T00:54:05.620Z,81.80
2023-02-13T00:58:08.890Z,82.44
2023-02-13T01:02:09.141Z,82.37
2023-02-13T01:06:10.424Z,82.59
2023-02-13T01:10:11.283Z,82.69
2023-02-13T01:14:14.330Z,83.13
2023-02-13T01:18:17.130Z,83.29
2023-02-13T01:22:17.381Z,83.15
2023-02-13T01:26:22.327Z,82.88
2023-02-13T01:30:26.247Z,83.01
2023-02-13T01:34:28.916Z,83.02
2023-02-13T01:38:29.199Z,82.88
2023-02-13T01:42:32.372Z,82.46
2023-02-13T01:46:43.452Z,82.94
2023-02-13T01:50:51.448Z,82.94
2023-02-13T01:54:51.689Z,82.35
2023-02-13T01:58:57.042Z,81.95
2023-02-13T02:03:12.102Z,81.48
2023-02-13T02:07:18.755Z,81.68
2023-02-13T02:11:29.852Z,82.15
2023-02-13T02:15:30.220Z,82.03
2023-02-13T02:19:47.602Z,82.63
2023-02-13T02:24:30.980Z,82.52
2023-02-13T02:29:06.155Z,82.43
2023-02-13T02:33:36.585Z,82.49
2023-02-13T02:38:05.119Z,82.32
2023-02-13T02:42:21.918Z,82.04
2023-02-13T02:46:35.664Z,81.50
2023-02-13T02:50:46.805Z,81.69
2023-02-13T02:55:06.536Z,81.59
2023-02-13T02:59:29.715Z,82.03
2023-02-13T03:03:46.530Z,81.71
2023-02-13T03:07:50.123Z,81.99
2023-02-13T03:12:07.244Z,82.25
2023-02-13T03:16:21.569Z,82.05
2023-02-13T03:20:53.968Z,82.34
2023-02-13T03:25:13.741Z,82.45
2023-02-13T03:29:38.116Z,82.42
2023-02-13T03:33:59.861Z,82.08
2023-02-13T03:38:10.918Z,81.95
2023-02-13T03:42:24.295Z,82.87
2023-02-13T03:46:27.480Z,83.44
2023-02-13T03:50:30.839Z,83.38
2023-02-13T03:54:57.180Z,83.50
2023-02-13T03:59:18.846Z,83.05
2023-02-13T04:03:27.647Z,83.73
2023-02-13T04:07:35.634Z,83.75
2023-02-13T04:11:42.207Z,83.43
2023-02-13T04:15:55.791Z,83.41
2023-02-13T04:19:56.481Z,83.80
2023-02-13T04:23:56.673Z,84.20
2023-02-13T04:27:56.827Z,84.52
2023-02-13T04:31:59.783Z,85.08
2023-02-13T04:35:59.894Z,84.15
2023-02-13T04:40:00.065Z,84.19
2023-02-13T04:44:00.710Z,84.12
2023-02-13T04:48:03.607Z,84.00
2023-02-13T04:52:03.821Z,83.88
2023-02-13T04:56:03.917Z,82.97
2023-02-13T05:00:04.999Z,83.32
2023-02-13T05:04:08.128Z,83.72
2023-02-13T05:08:12.299Z,83.55
2023-02-13T05:12:12.399Z,83.22
2023-02-13T05:16:14.935Z,83.84
2023-02-13T05:20:18.951Z,83.88
2023-02-13T05:24:20.490Z,84.07
2023-02-13T05:28:33.417Z,83.86
2023-02-13T05:32:33.577Z,83.79
2023-02-13T05:36:36.409Z,84.03
2023-02-13T05:40:39.736Z,84.22
2023-02-13T05:44:40.205Z,84.16
2023-02-13T05:48:41.369Z,83.58
2023-02-13T05:52:44.134Z,82.95
2023-02-13T05:56:44.605Z,82.12
2023-02-13T06:00:45.048Z,81.95
2023-02-13T06:04:45.131Z,81.65
2023-02-13T06:08:48.210Z,81.02
2023-02-13T06:12:48.334Z,80.91
2023-02-13T06:16:48.496Z,81.05
2023-02-13T06:20:48.838Z,80.87
2023-02-13T06:24:51.592Z,81.08
2023-02-13T06:28:51.787Z,80.43
2023-02-13T06:32:52.672Z,80.25
2023-02-13T06:36:53.329Z,80.82
2023-02-13T06:40:56.661Z,80.03
2023-02-13T06:44:57.112Z,80.17
2023-02-13T06:48:57.303Z,79.84
2023-02-13T06:52:58.474Z,79.57
2023-02-13T06:57:01.219Z,79.14
2023-02-13T07:01:01.465Z,78.60
2023-02-13T07:05:02.517Z,78.36
2023-02-13T07:09:03.851Z,78.16
2023-02-13T07:13:14.305Z,78.54
2023-02-13T07:17:14.681Z,78.79
2023-02-13T07:21:16.026Z,77.67
2023-02-13T07:25:16.212Z,77.48
2023-02-13T07:29:19.084Z,77.54
2023-02-13T07:33:19.556Z,76.98
2023-02-13T07:37:19.778Z,75.82
2023-02-13T07:41:51.268Z,75.41
2023-02-13T07:56:21.465Z,73.89
2023-02-13T08:00:25.224Z,73.05
2023-02-13T08:04:26.491Z,72.32
2023-02-13T08:08:27.811Z,71.73
2023-02-13T08:12:31.132Z,71.68
2023-02-13T08:16:31.681Z,71.29
2023-02-13T08:20:32.260Z,70.36
2023-02-13T08:24:33.020Z,70.32
2023-02-13T08:28:36.506Z,69.89
2023-02-13T08:32:52.875Z,68.88
2023-02-13T08:36:53.995Z,68.33
2023-02-13T08:40:54.654Z,68.15
2023-02-13T08:44:59.666Z,68.25
2023-02-13T08:48:59.927Z,67.82
2023-02-13T08:53:01.761Z,67.72
2023-02-13T08:57:02.077Z,67.91
2023-02-13T09:01:09.583Z,67.93
2023-02-13T09:05:11.077Z,67.02
2023-02-13T09:09:12.315Z,66.43
2023-02-13T09:13:14.539Z,66.48
2023-02-13T09:17:19.851Z,65.16
2023-02-13T09:21:23.776Z,64.08
2023-02-13T09:25:24.018Z,63.17
2023-02-13T09:29:30.526Z,61.95
2023-02-13T09:33:35.105Z,60.91
2023-02-13T09:37:35.710Z,60.79
2023-02-13T09:41:41.524Z,60.53
2023-02-13T09:45:44.371Z,59.64
2023-02-13T09:49:55.832Z,60.14
2023-02-13T09:54:02.645Z,58.22
2023-02-13T09:58:12.745Z,57.96
2023-02-13T10:02:51.030Z,56.33
2023-02-13T10:07:09.018Z,56.05
2023-02-13T10:11:33.947Z,55.77
2023-02-13T10:15:46.838Z,56.42
2023-02-13T10:19:58.817Z,56.39
2023-02-13T10:24:08.858Z,57.13
2023-02-13T10:28:21.840Z,56.38
2023-02-13T10:32:30.633Z,54.67
2023-02-13T10:36:36.900Z,54.22
2023-02-13T10:40:55.284Z,53.02
2023-02-13T10:45:23.086Z,53.56
2023-02-13T10:49:55.974Z,53.07
2023-02-13T10:54:21.609Z,53.30
2023-02-13T10:58:37.128Z,52.86
2023-02-13T11:02:38.948Z,52.42
2023-02-13T11:06:45.396Z,51.20
2023-02-13T11:10:45.978Z,50.06
2023-02-13T11:14:59.346Z,49.58
2023-02-13T11:19:00.333Z,49.49
2023-02-13T11:23:22.262Z,49.02
2023-02-13T11:27:29.993Z,48.23
2023-02-13T11:31:35.868Z,49.16
2023-02-13T11:35:39.820Z,48.76
2023-02-13T11:39:40.488Z,49.05
2023-02-13T11:43:49.303Z,49.04
2023-02-13T11:47:53.205Z,47.64
2023-02-13T11:51:57.552Z,47.46
2023-02-13T11:56:18.291Z,47.49
2023-02-13T12:00:38.065Z,46.76
2023-02-13T12:04:43.052Z,45.96
2023-02-13T12:08:48.800Z,45.78
2023-02-13T12:12:58.086Z,44.04
2023-02-13T12:17:04.295Z,44.62
2023-02-13T12:21:27.478Z,44.46
2023-02-13T12:26:07.343Z,42.64
2023-02-13T12:30:41.007Z,39.86
2023-02-13T12:35:22.333Z,37.21
2023-02-13T12:39:34.225Z,34.47
2023-02-13T12:44:24.929Z,35.03
2023-02-13T12:48:42.042Z,37.89
2023-02-13T12:52:59.342Z,38.87
2023-02-13T12:57:24.357Z,40.25
2023-02-13T13:02:09.861Z,41.91
2023-02-13T13:06:39.797Z,41.19
2023-02-13T13:10:57.224Z,40.63
2023-02-13T13:15:13.025Z,39.32
2023-02-13T13:19:29.268Z,38.85
2023-02-13T13:23:39.506Z,40.12
2023-02-13T13:27:46.938Z,39.20
2023-02-13T13:31:57.101Z,41.38
2023-02-13T13:36:10.853Z,41.69
2023-02-13T13:40:33.866Z,37.67
2023-02-13T13:45:08.203Z,36.82
2023-02-13T13:49:37.299Z,36.33
2023-02-13T13:53:39.307Z,36.97
2023-02-13T13:58:05.029Z,36.17
2023-02-13T14:02:49.729Z,37.73
2023-02-13T14:07:27.491Z,37.52
2023-02-13T14:11:42.472Z,38.79
2023-02-13T14:15:56.251Z,39.69
2023-02-13T14:19:58.683Z,40.23
2023-02-13T14:24:04.166Z,38.77
2023-02-13T14:28:08.557Z,38.96
2023-02-13T14:32:30.060Z,39.39
2023-02-13T14:36:34.027Z,39.57
2023-02-13T14:40:51.336Z,38.41
2023-02-13T14:44:59.702Z,40.52
2023-02-13T14:49:06.681Z,41.21
2023-02-13T14:53:22.350Z,41.59
2023-02-13T14:57:32.013Z,40.67
2023-02-13T15:01:36.556Z,40.21
2023-02-13T15:05:40.425Z,40.19
2023-02-13T15:09:44.345Z,40.77
2023-02-13T15:13:47.612Z,41.37
2023-02-13T15:17:48.170Z,41.22
2023-02-13T15:21:57.326Z,41.41
2023-02-13T15:26:04.454Z,41.37
2023-02-13T15:30:24.136Z,42.52
2023-02-13T15:34:29.054Z,42.76
2023-02-13T15:38:32.392Z,42.93
2023-02-13T15:42:33.678Z,43.98
2023-02-13T15:46:40.532Z,45.16
2023-02-13T15:50:45.661Z,46.23
2023-02-13T15:54:54.341Z,47.20
2023-02-13T15:58:56.330Z,48.76
2023-02-13T16:03:03.450Z,48.74
2023-02-13T16:07:04.888Z,48.67
2023-02-13T16:11:28.902Z,49.78
2023-02-13T16:15:34.565Z,51.04
2023-02-13T16:20:01.974Z,52.28
2023-02-13T16:24:06.993Z,52.83
2023-02-13T16:28:20.464Z,54.10
2023-02-13T16:32:31.572Z,55.60
2023-02-13T16:36:39.625Z,57.24
2023-02-13T16:40:44.378Z,57.70
2023-02-13T16:44:44.651Z,58.27
2023-02-13T16:48:45.714Z,59.17
2023-02-13T16:52:49.148Z,60.32
2023-02-13T16:56:53.241Z,61.43
2023-02-13T17:00:55.468Z,61.99
2023-02-13T17:04:59.967Z,63.08
2023-02-13T17:09:03.351Z,64.15
2023-02-13T17:13:11.630Z,64.86
2023-02-13T17:17:17.008Z,64.97
2023-02-13T17:21:17.280Z,65.32
2023-02-13T17:25:25.557Z,65.61
2023-02-13T17:29:26.323Z,65.89
2023-02-13T17:33:29.889Z,65.53
2023-02-13T17:37:32.972Z,66.03
2023-02-13T17:41:38.347Z,66.55
2023-02-13T17:45:39.283Z,67.14
2023-02-13T17:49:40.436Z,67.50
2023-02-13T17:53:40.887Z,69.04
2023-02-13T17:57:43.805Z,68.63
2023-02-13T18:01:44.493Z,69.47
2023-02-13T18:05:45.883Z,70.17
2023-02-13T18:09:47.989Z,70.06
2023-02-13T18:13:50.891Z,69.52
2023-02-13T18:17:52.343Z,69.44
2023-02-13T18:21:53.894Z,69.69
2023-02-13T18:25:54.940Z,69.69
2023-02-13T18:29:59.463Z,69.55
2023-02-13T18:34:01.140Z,69.42
2023-02-13T18:38:03.757Z,69.30
2023-02-13T18:42:04.326Z,69.33
2023-02-13T18:46:08.747Z,70.27
2023-02-13T18:50:13.731Z,69.99
2023-02-13T18:54:14.500Z,70.49
2023-02-13T18:58:15.128Z,70.76
2023-02-13T19:02:18.137Z,70.62
2023-02-13T19:06:22.140Z,70.77
2023-02-13T19:10:22.734Z,70.98
2023-02-13T19:14:25.177Z,70.66
2023-02-13T19:18:29.321Z,70.75
2023-02-13T19:22:30.420Z,71.25
2023-02-13T19:26:31.462Z,72.39
2023-02-13T19:30:32.181Z,73.87
2023-02-13T19:34:35.518Z,73.74
2023-02-13T19:38:35.905Z,73.23
2023-02-13T19:42:36.913Z,73.89
2023-02-13T19:46:39.161Z,74.77
2023-02-13T19:50:42.466Z,74.38
2023-02-13T19:54:45.145Z,75.43
2023-02-13T19:58:46.517Z,74.94
2023-02-13T20:02:47.304Z,74.76
2023-02-13T20:06:50.789Z,75.07
2023-02-13T20:10:50.999Z,74.84
2023-02-13T20:14:51.544Z,74.96
2023-02-13T20:18:52.839Z,75.48
2023-02-13T20:22:56.021Z,75.45
2023-02-13T20:26:58.986Z,76.20
2023-02-13T20:31:00.779Z,76.08
2023-02-13T20:35:01.525Z,76.09
2023-02-13T20:39:08.326Z,76.43
2023-02-13T20:43:08.929Z,75.90
2023-02-13T20:47:11.113Z,77.33
2023-02-13T20:51:15.069Z,76.70
2023-02-13T20:55:19.730Z,76.57
2023-02-13T20:59:20.968Z,77.13
2023-02-13T21:03:21.342Z,77.29
2023-02-13T21:07:21.715Z,77.87
2023-02-13T21:11:26.496Z,77.38
2023-02-13T21:15:26.909Z,77.54
2023-02-13T21:19:27.812Z,77.56
2023-02-13T21:23:28.240Z,77.49
2023-02-13T21:27:32.393Z,77.24
2023-02-13T21:31:36.960Z,77.01
2023-02-13T21:35:38.474Z,77.10
2023-02-13T21:39:40.658Z,77.27
2023-02-13T21:43:46.855Z,76.93
2023-02-13T21:47:47.310Z,77.84
2023-02-13T21:51:49.524Z,77.39
2023-02-13T21:55:49.944Z,77.60
2023-02-13T21:59:53.133Z,77.07
2023-02-13T22:03:56.411Z,77.73
2023-02-13T22:08:10.804Z,78.39
2023-02-13T22:12:11.332Z,77.90
2023-02-13T22:16:18.164Z,78.56
2023-02-13T22:20:19.083Z,77.90
2023-02-13T22:24:19.600Z,77.76
2023-02-13T22:28:20.280Z,78.07
2023-02-13T22:32:23.352Z,77.67
2023-02-13T22:36:24.401Z,78.11
2023-02-13T22:40:28.026Z,78.28
2023-02-13T22:44:28.296Z,78.21
2023-02-13T22:48:31.388Z,78.52
2023-02-13T22:52:32.057Z,78.46
2023-02-13T22:56:33.952Z,79.18
2023-02-13T23:00:34.376Z,79.42
2023-02-13T23:04:37.557Z,79.57
2023-02-13T23:08:38.156Z,78.89
2023-02-13T23:12:45.573Z,78.91
2023-02-13T23:16:59.391Z,80.14
2023-02-13T23:21:09.323Z,80.31
2023-02-13T23:25:10.527Z,79.71
2023-02-13T23:29:10.842Z,79.63
2023-02-13T23:33:11.186Z,80.30
2023-02-13T23:37:15.247Z,80.70
2023-02-13T23:41:15.902Z,79.87
2023-02-13T23:45:16.171Z,80.95
2023-02-13T23:49:16.580Z,80.02
2023-02-13T23:53:19.614Z,79.64
2023-02-13T23:57:20.146Z,79.15
